PWSweather.com
Personal Weather Stations
Station Observations
KAZSIERR7
Canyon De Flores, Sierra Vista, AZ 85650

Canyon De FloresSierra Vista, AZ 85650

Lat: 31.5, Lon: -110.26

Elevation: 4645

Station Type: LaCrosse WS-3610 & Boltek Lightning Detector

http://www.lightningring.com/weather/

Latest ConditionsUpdated 10:49:26 AM MST Sunday, Aug 30, 2015
Currently Today's Max Today's Min Today's Average
Temperature 85.9°F29.9°C 87.4°F30.8°C 63.5°F17.5°C 72.2°F22.3°C
Dew Point 56.5°F13.6°C 60.9°F16.1°C 54.7°F12.6°C 56.8°F13.8°C
Winds Calm Calm 3.6 mph S5.8 kmh S - 0.2 mph 0.3 kmh
Wind Gusts -- 19.2 mph30.9 kmh - -
Humidity 37% 74% 37% 60%
Pressure 30.16 in1021.3 mb 30.17 in1021.7 mb 30.12 in1020.0 mb -
Hour Temp Dew Point Humidity Winds Wind Gusts Pressure Precip Precip Rate Daily Precip Total
10:49 AM 85.9°F29.9°C 56.5°F13.6°C 37% Calm Calm -- 30.16 in1021.3 mb 0.00 in0.0 mm 0.00 in0.0 mm 0.00 in0.0 mm
10:44 AM 86.0°F30.0°C 57.3°F14.1°C 38% Calm Calm -- 30.17 in1021.7 mb 0.00 in0.0 mm 0.00 in0.0 mm 0.00 in0.0 mm
10:38 AM 86.1°F30.1°C 57.4°F14.1°C 38% Calm Calm 1.5 mph2.4 kmh 30.17 in1021.7 mb 0.00 in0.0 mm 0.00 in0.0 mm 0.00 in0.0 mm
10:33 AM 84.1°F28.9°C 56.4°F13.6°C 39% Calm Calm 1.5 mph2.4 kmh 30.17 in1021.7 mb 0.00 in0.0 mm 0.00 in0.0 mm 0.00 in0.0 mm
10:28 AM 86.3°F30.2°C 58.4°F14.7°C 39% Calm Calm -- 30.17 in1021.7 mb 0.00 in0.0 mm 0.00 in0.0 mm 0.00 in0.0 mm
10:23 AM 85.3°F29.6°C 58.2°F14.6°C 40% Calm Calm 0.4 mph0.6 kmh 30.17 in1021.7 mb 0.00 in0.0 mm 0.00 in0.0 mm 0.00 in0.0 mm
10:17 AM 83.6°F28.7°C 57.4°F14.1°C 41% 0.4 mph ESE0.6 kmh ESE 0.4 mph0.6 kmh 30.17 in1021.7 mb 0.00 in0.0 mm 0.00 in0.0 mm 0.00 in0.0 mm
10:12 AM 87.4°F30.8°C 58.6°F14.8°C 38% Calm Calm -- 30.17 in1021.7 mb 0.00 in0.0 mm 0.00 in0.0 mm 0.00 in0.0 mm
10:07 AM 85.7°F29.8°C 59.3°F15.2°C 41% Calm Calm 1.1 mph1.8 kmh 30.17 in1021.7 mb 0.00 in0.0 mm 0.00 in0.0 mm 0.00 in0.0 mm
10:02 AM 84.6°F29.2°C 59.0°F15.0°C 42% 1.1 mph ESE1.8 kmh ESE 1.1 mph1.8 kmh 30.17 in1021.7 mb 0.00 in0.0 mm 0.00 in0.0 mm 0.00 in0.0 mm
09:55 AM 84.4°F29.1°C 59.4°F15.2°C 43% 0.2 mph ESE0.3 kmh ESE 16.1 mph25.9 kmh 30.17 in1021.7 mb 0.00 in0.0 mm 0.00 in0.0 mm 0.00 in0.0 mm
09:50 AM 84.3°F29.1°C 58.7°F14.8°C 42% 3.5 mph E5.6 kmh E 16.1 mph25.9 kmh 30.17 in1021.7 mb 0.00 in0.0 mm 0.00 in0.0 mm 0.00 in0.0 mm
09:45 AM 86.2°F30.1°C 59.7°F15.4°C 41% Calm Calm -- 30.17 in1021.7 mb 0.00 in0.0 mm 0.00 in0.0 mm 0.00 in0.0 mm
09:40 AM 84.6°F29.2°C 59.6°F15.3°C 43% Calm Calm -- 30.17 in1021.7 mb 0.00 in0.0 mm 0.00 in0.0 mm 0.00 in0.0 mm
09:34 AM 84.4°F29.1°C 59.5°F15.3°C 43% Calm Calm -- 30.17 in1021.7 mb 0.00 in0.0 mm 0.00 in0.0 mm 0.00 in0.0 mm
09:29 AM 85.2°F29.6°C 60.9°F16.1°C 44% Calm Calm -- 30.17 in1021.7 mb 0.00 in0.0 mm 0.00 in0.0 mm 0.00 in0.0 mm
09:24 AM 84.7°F29.3°C 60.4°F15.8°C 44% Calm Calm -- 30.17 in1021.7 mb 0.00 in0.0 mm 0.00 in0.0 mm 0.00 in0.0 mm
09:19 AM 84.4°F29.1°C 60.8°F16.0°C 45% Calm Calm -- 30.17 in1021.7 mb 0.00 in0.0 mm 0.00 in0.0 mm 0.00 in0.0 mm
09:13 AM 83.6°F28.7°C 60.1°F15.6°C 45% Calm Calm -- 30.17 in1021.7 mb 0.00 in0.0 mm 0.00 in0.0 mm 0.00 in0.0 mm
09:08 AM 82.9°F28.3°C 60.0°F15.6°C 46% Calm Calm 1.5 mph2.4 kmh 30.17 in1021.7 mb 0.00 in0.0 mm 0.00 in0.0 mm 0.00 in0.0 mm
09:03 AM 83.0°F28.3°C 60.8°F16.0°C 47% Calm Calm 16.3 mph26.2 kmh 30.17 in1021.7 mb 0.00 in0.0 mm 0.00 in0.0 mm 0.00 in0.0 mm
08:58 AM 81.9°F27.7°C 60.4°F15.8°C 48% 1.1 mph ENE1.8 kmh ENE 16.3 mph26.2 kmh 30.17 in1021.7 mb 0.00 in0.0 mm 0.00 in0.0 mm 0.00 in0.0 mm
08:52 AM 83.6°F28.7°C 60.7°F15.9°C 46% 2.0 mph SE3.2 kmh SE 2.0 mph3.2 kmh 30.17 in1021.7 mb 0.00 in0.0 mm 0.00 in0.0 mm 0.00 in0.0 mm
08:47 AM 81.4°F27.4°C 59.3°F15.2°C 47% 0.4 mph ESE0.6 kmh ESE 2.2 mph3.5 kmh 30.17 in1021.7 mb 0.00 in0.0 mm 0.00 in0.0 mm 0.00 in0.0 mm
08:42 AM 81.5°F27.5°C 60.0°F15.6°C 48% Calm Calm 2.2 mph3.5 kmh 30.17 in1021.7 mb 0.00 in0.0 mm 0.00 in0.0 mm 0.00 in0.0 mm
08:37 AM 81.7°F27.6°C 58.3°F14.6°C 45% Calm Calm -- 30.17 in1021.7 mb 0.00 in0.0 mm 0.00 in0.0 mm 0.00 in0.0 mm
08:31 AM 81.0°F27.2°C 58.3°F14.6°C 46% Calm Calm -- 30.17 in1021.7 mb 0.00 in0.0 mm 0.00 in0.0 mm 0.00 in0.0 mm
08:26 AM 81.2°F27.3°C 58.5°F14.7°C 46% Calm Calm -- 30.16 in1021.3 mb 0.00 in0.0 mm 0.00 in0.0 mm 0.00 in0.0 mm
08:21 AM 80.5°F26.9°C 58.5°F14.7°C 47% Calm Calm -- 30.17 in1021.7 mb 0.00 in0.0 mm 0.00 in0.0 mm 0.00 in0.0 mm
08:16 AM 79.6°F26.4°C 57.7°F14.3°C 47% Calm Calm -- 30.16 in1021.3 mb 0.00 in0.0 mm 0.00 in0.0 mm 0.00 in0.0 mm
08:10 AM 78.9°F26.1°C 57.6°F14.2°C 48% Calm Calm -- 30.16 in1021.3 mb 0.00 in0.0 mm 0.00 in0.0 mm 0.00 in0.0 mm
08:05 AM 79.9°F26.6°C 57.9°F14.4°C 47% Calm Calm -- 30.16 in1021.3 mb 0.00 in0.0 mm 0.00 in0.0 mm 0.00 in0.0 mm
08:00 AM 79.1°F26.2°C 58.4°F14.7°C 49% Calm Calm -- 30.16 in1021.3 mb 0.00 in0.0 mm 0.00 in0.0 mm 0.00 in0.0 mm
07:54 AM 77.5°F25.3°C 59.1°F15.1°C 53% Calm Calm -- 30.16 in1021.3 mb 0.00 in0.0 mm 0.00 in0.0 mm 0.00 in0.0 mm
07:49 AM 78.2°F25.7°C 58.8°F14.9°C 51% Calm Calm -- 30.16 in1021.3 mb 0.00 in0.0 mm 0.00 in0.0 mm 0.00 in0.0 mm
07:44 AM 78.6°F25.9°C 58.5°F14.7°C 50% Calm Calm -- 30.16 in1021.3 mb 0.00 in0.0 mm 0.00 in0.0 mm 0.00 in0.0 mm
07:39 AM 78.5°F25.8°C 59.6°F15.3°C 52% Calm Calm -- 30.16 in1021.3 mb 0.00 in0.0 mm 0.00 in0.0 mm 0.00 in0.0 mm
07:33 AM 77.2°F25.1°C 59.4°F15.2°C 54% Calm Calm -- 30.15 in1021.0 mb 0.00 in0.0 mm 0.00 in0.0 mm 0.00 in0.0 mm
07:28 AM 77.5°F25.3°C 59.0°F15.0°C 53% Calm Calm -- 30.15 in1021.0 mb 0.00 in0.0 mm 0.00 in0.0 mm 0.00 in0.0 mm
07:23 AM 75.7°F24.3°C 59.4°F15.2°C 57% Calm Calm -- 30.15 in1021.0 mb 0.00 in0.0 mm 0.00 in0.0 mm 0.00 in0.0 mm
07:18 AM 73.9°F23.3°C 59.5°F15.3°C 61% Calm Calm -- 30.15 in1021.0 mb 0.00 in0.0 mm 0.00 in0.0 mm 0.00 in0.0 mm
07:12 AM 71.6°F22.0°C 58.3°F14.6°C 63% Calm Calm -- 30.15 in1021.0 mb 0.00 in0.0 mm 0.00 in0.0 mm 0.00 in0.0 mm
07:07 AM 70.3°F21.3°C 58.3°F14.6°C 66% Calm Calm -- 30.15 in1021.0 mb 0.00 in0.0 mm 0.00 in0.0 mm 0.00 in0.0 mm
07:02 AM 68.7°F20.4°C 57.6°F14.2°C 68% Calm Calm -- 30.15 in1021.0 mb 0.00 in0.0 mm 0.00 in0.0 mm 0.00 in0.0 mm
06:57 AM 67.8°F19.9°C 56.8°F13.8°C 68% Calm Calm -- 30.15 in1021.0 mb 0.00 in0.0 mm 0.00 in0.0 mm 0.00 in0.0 mm
06:51 AM 66.9°F19.4°C 56.3°F13.5°C 69% Calm Calm -- 30.15 in1021.0 mb 0.00 in0.0 mm 0.00 in0.0 mm 0.00 in0.0 mm
06:46 AM 66.4°F19.1°C 56.7°F13.7°C 71% Calm Calm -- 30.15 in1021.0 mb 0.00 in0.0 mm 0.00 in0.0 mm 0.00 in0.0 mm
06:41 AM 66.0°F18.9°C 56.3°F13.5°C 71% Calm Calm -- 30.15 in1021.0 mb 0.00 in0.0 mm 0.00 in0.0 mm 0.00 in0.0 mm
06:36 AM 65.3°F18.5°C 55.9°F13.3°C 72% Calm Calm -- 30.16 in1021.3 mb 0.00 in0.0 mm 0.00 in0.0 mm 0.00 in0.0 mm
06:30 AM 64.6°F18.1°C 55.6°F13.1°C 73% Calm Calm -- 30.15 in1021.0 mb 0.00 in0.0 mm 0.00 in0.0 mm 0.00 in0.0 mm
06:25 AM 64.0°F17.8°C 55.6°F13.1°C 74% Calm Calm -- 30.14 in1020.7 mb 0.00 in0.0 mm 0.00 in0.0 mm 0.00 in0.0 mm
06:20 AM 63.7°F17.6°C 55.2°F12.9°C 74% Calm Calm -- 30.14 in1020.7 mb 0.00 in0.0 mm 0.00 in0.0 mm 0.00 in0.0 mm
06:14 AM 63.5°F17.5°C 54.7°F12.6°C 73% Calm Calm -- 30.14 in1020.7 mb 0.00 in0.0 mm 0.00 in0.0 mm 0.00 in0.0 mm
06:09 AM 63.9°F17.7°C 55.0°F12.8°C 73% Calm Calm -- 30.14 in1020.7 mb 0.00 in0.0 mm 0.00 in0.0 mm 0.00 in0.0 mm
06:04 AM 64.0°F17.8°C 55.2°F12.9°C 73% Calm Calm -- 30.14 in1020.7 mb 0.00 in0.0 mm 0.00 in0.0 mm 0.00 in0.0 mm
05:59 AM 64.0°F17.8°C 55.2°F12.9°C 73% Calm Calm -- 30.13 in1020.3 mb 0.00 in0.0 mm 0.00 in0.0 mm 0.00 in0.0 mm
05:53 AM 64.0°F17.8°C 55.2°F12.9°C 73% Calm Calm -- 30.13 in1020.3 mb 0.00 in0.0 mm 0.00 in0.0 mm 0.00 in0.0 mm
05:48 AM 64.0°F17.8°C 55.2°F12.9°C 73% Calm Calm -- 30.13 in1020.3 mb 0.00 in0.0 mm 0.00 in0.0 mm 0.00 in0.0 mm
05:43 AM 64.2°F17.9°C 55.0°F12.8°C 72% Calm Calm -- 30.13 in1020.3 mb 0.00 in0.0 mm 0.00 in0.0 mm 0.00 in0.0 mm
05:38 AM 64.6°F18.1°C 55.6°F13.1°C 72% Calm Calm -- 30.13 in1020.3 mb 0.00 in0.0 mm 0.00 in0.0 mm 0.00 in0.0 mm
05:32 AM 64.2°F17.9°C 55.4°F13.0°C 73% Calm Calm -- 30.13 in1020.3 mb 0.00 in0.0 mm 0.00 in0.0 mm 0.00 in0.0 mm
05:27 AM 64.0°F17.8°C 55.2°F12.9°C 73% Calm Calm -- 30.13 in1020.3 mb 0.00 in0.0 mm 0.00 in0.0 mm 0.00 in0.0 mm
05:22 AM 64.0°F17.8°C 55.2°F12.9°C 73% Calm Calm -- 30.13 in1020.3 mb 0.00 in0.0 mm 0.00 in0.0 mm 0.00 in0.0 mm
05:17 AM 64.0°F17.8°C 55.2°F12.9°C 73% Calm Calm -- 30.13 in1020.3 mb 0.00 in0.0 mm 0.00 in0.0 mm 0.00 in0.0 mm
05:11 AM 63.9°F17.7°C 55.0°F12.8°C 73% Calm Calm -- 30.13 in1020.3 mb 0.00 in0.0 mm 0.00 in0.0 mm 0.00 in0.0 mm
05:06 AM 64.2°F17.9°C 55.4°F13.0°C 73% Calm Calm -- 30.13 in1020.3 mb 0.00 in0.0 mm 0.00 in0.0 mm 0.00 in0.0 mm
05:01 AM 64.2°F17.9°C 55.4°F13.0°C 73% Calm Calm -- 30.13 in1020.3 mb 0.00 in0.0 mm 0.00 in0.0 mm 0.00 in0.0 mm
04:55 AM 64.4°F18.0°C 55.2°F12.9°C 72% Calm Calm -- 30.13 in1020.3 mb 0.00 in0.0 mm 0.00 in0.0 mm 0.00 in0.0 mm
04:50 AM 64.6°F18.1°C 55.6°F13.1°C 73% Calm Calm -- 30.13 in1020.3 mb 0.00 in0.0 mm 0.00 in0.0 mm 0.00 in0.0 mm
04:44 AM 64.8°F18.2°C 55.4°F13.0°C 72% Calm Calm -- 30.13 in1020.3 mb 0.00 in0.0 mm 0.00 in0.0 mm 0.00 in0.0 mm
04:39 AM 64.9°F18.3°C 55.6°F13.1°C 73% Calm Calm -- 30.13 in1020.3 mb 0.00 in0.0 mm 0.00 in0.0 mm 0.00 in0.0 mm
04:34 AM 65.3°F18.5°C 55.9°F13.3°C 72% Calm Calm -- 30.13 in1020.3 mb 0.00 in0.0 mm 0.00 in0.0 mm 0.00 in0.0 mm
04:29 AM 65.3°F18.5°C 55.9°F13.3°C 72% Calm Calm -- 30.13 in1020.3 mb 0.00 in0.0 mm 0.00 in0.0 mm 0.00 in0.0 mm
04:23 AM 65.3°F18.5°C 55.6°F13.1°C 72% Calm Calm -- 30.13 in1020.3 mb 0.00 in0.0 mm 0.00 in0.0 mm 0.00 in0.0 mm
04:18 AM 65.5°F18.6°C 55.8°F13.2°C 71% Calm Calm -- 30.13 in1020.3 mb 0.00 in0.0 mm 0.00 in0.0 mm 0.00 in0.0 mm
04:13 AM 65.5°F18.6°C 55.8°F13.2°C 71% Calm Calm -- 30.13 in1020.3 mb 0.00 in0.0 mm 0.00 in0.0 mm 0.00 in0.0 mm
04:08 AM 65.3°F18.5°C 55.6°F13.1°C 71% Calm Calm -- 30.14 in1020.7 mb 0.00 in0.0 mm 0.00 in0.0 mm 0.00 in0.0 mm
04:02 AM 65.5°F18.6°C 55.8°F13.2°C 71% Calm Calm -- 30.14 in1020.7 mb 0.00 in0.0 mm 0.00 in0.0 mm 0.00 in0.0 mm
03:57 AM 65.8°F18.8°C 56.1°F13.4°C 71% Calm Calm -- 30.14 in1020.7 mb 0.00 in0.0 mm 0.00 in0.0 mm 0.00 in0.0 mm
03:52 AM 65.8°F18.8°C 56.1°F13.4°C 71% Calm Calm -- 30.14 in1020.7 mb 0.00 in0.0 mm 0.00 in0.0 mm 0.00 in0.0 mm
03:47 AM 65.8°F18.8°C 56.1°F13.4°C 71% Calm Calm -- 30.13 in1020.3 mb 0.00 in0.0 mm 0.00 in0.0 mm 0.00 in0.0 mm
03:41 AM 66.0°F18.9°C 56.3°F13.5°C 71% Calm Calm -- 30.13 in1020.3 mb 0.00 in0.0 mm 0.00 in0.0 mm 0.00 in0.0 mm
03:36 AM 66.0°F18.9°C 56.3°F13.5°C 71% Calm Calm -- 30.13 in1020.3 mb 0.00 in0.0 mm 0.00 in0.0 mm 0.00 in0.0 mm
03:31 AM 66.4°F19.1°C 56.3°F13.5°C 70% Calm Calm -- 30.13 in1020.3 mb 0.00 in0.0 mm 0.00 in0.0 mm 0.00 in0.0 mm
03:26 AM 66.4°F19.1°C 56.3°F13.5°C 71% Calm Calm -- 30.13 in1020.3 mb 0.00 in0.0 mm 0.00 in0.0 mm 0.00 in0.0 mm
03:20 AM 66.4°F19.1°C 56.3°F13.5°C 70% Calm Calm -- 30.13 in1020.3 mb 0.00 in0.0 mm 0.00 in0.0 mm 0.00 in0.0 mm
03:15 AM 66.7°F19.3°C 56.1°F13.4°C 70% Calm Calm -- 30.13 in1020.3 mb 0.00 in0.0 mm 0.00 in0.0 mm 0.00 in0.0 mm
03:10 AM 66.9°F19.4°C 55.9°F13.3°C 69% Calm Calm -- 30.13 in1020.3 mb 0.00 in0.0 mm 0.00 in0.0 mm 0.00 in0.0 mm
03:05 AM 67.6°F19.8°C 56.1°F13.4°C 67% Calm Calm -- 30.13 in1020.3 mb 0.00 in0.0 mm 0.00 in0.0 mm 0.00 in0.0 mm
02:59 AM 67.6°F19.8°C 56.1°F13.4°C 67% Calm Calm -- 30.13 in1020.3 mb 0.00 in0.0 mm 0.00 in0.0 mm 0.00 in0.0 mm
02:54 AM 67.8°F19.9°C 55.9°F13.3°C 65% Calm Calm -- 30.12 in1020.0 mb 0.00 in0.0 mm 0.00 in0.0 mm 0.00 in0.0 mm
02:49 AM 67.8°F19.9°C 55.9°F13.3°C 66% Calm Calm -- 30.12 in1020.0 mb 0.00 in0.0 mm 0.00 in0.0 mm 0.00 in0.0 mm
02:44 AM 67.8°F19.9°C 55.6°F13.1°C 65% Calm Calm -- 30.12 in1020.0 mb 0.00 in0.0 mm 0.00 in0.0 mm 0.00 in0.0 mm
02:38 AM 67.8°F19.9°C 55.6°F13.1°C 65% Calm Calm -- 30.12 in1020.0 mb 0.00 in0.0 mm 0.00 in0.0 mm 0.00 in0.0 mm
02:33 AM 67.6°F19.8°C 54.9°F12.7°C 64% Calm Calm -- 30.12 in1020.0 mb 0.00 in0.0 mm 0.00 in0.0 mm 0.00 in0.0 mm
02:28 AM 68.2°F20.1°C 55.4°F13.0°C 64% Calm Calm -- 30.12 in1020.0 mb 0.00 in0.0 mm 0.00 in0.0 mm 0.00 in0.0 mm
02:23 AM 68.5°F20.3°C 55.8°F13.2°C 64% Calm Calm -- 30.12 in1020.0 mb 0.00 in0.0 mm 0.00 in0.0 mm 0.00 in0.0 mm
02:18 AM 69.6°F20.9°C 55.6°F13.1°C 61% Calm Calm -- 30.12 in1020.0 mb 0.00 in0.0 mm 0.00 in0.0 mm 0.00 in0.0 mm
02:12 AM 70.5°F21.4°C 55.4°F13.0°C 59% Calm Calm -- 30.12 in1020.0 mb 0.00 in0.0 mm 0.00 in0.0 mm 0.00 in0.0 mm
02:07 AM 71.2°F21.8°C 56.1°F13.4°C 59% Calm Calm -- 30.12 in1020.0 mb 0.00 in0.0 mm 0.00 in0.0 mm 0.00 in0.0 mm
02:02 AM 71.8°F22.1°C 56.1°F13.4°C 58% Calm Calm -- 30.12 in1020.0 mb 0.00 in0.0 mm 0.00 in0.0 mm 0.00 in0.0 mm
01:56 AM 72.3°F22.4°C 56.1°F13.4°C 56% Calm Calm 1.1 mph1.8 kmh 30.13 in1020.3 mb 0.00 in0.0 mm 0.00 in0.0 mm 0.00 in0.0 mm
01:51 AM 72.3°F22.4°C 56.1°F13.4°C 57% 1.1 mph S1.8 kmh S 19.2 mph30.9 kmh 30.12 in1020.0 mb 0.00 in0.0 mm 0.00 in0.0 mm 0.00 in0.0 mm
01:46 AM 72.1°F22.3°C 55.9°F13.3°C 57% 3.6 mph S5.8 kmh S 19.2 mph30.9 kmh 30.13 in1020.3 mb 0.00 in0.0 mm 0.00 in0.0 mm 0.00 in0.0 mm
01:41 AM 71.6°F22.0°C 56.5°F13.6°C 59% 2.0 mph S3.2 kmh S 2.4 mph3.9 kmh 30.13 in1020.3 mb 0.00 in0.0 mm 0.00 in0.0 mm 0.00 in0.0 mm
01:36 AM 71.4°F21.9°C 56.3°F13.5°C 59% Calm Calm -- 30.13 in1020.3 mb 0.00 in0.0 mm 0.00 in0.0 mm 0.00 in0.0 mm
01:30 AM 71.2°F21.8°C 56.1°F13.4°C 59% Calm Calm 2.6 mph4.2 kmh 30.13 in1020.3 mb 0.00 in0.0 mm 0.00 in0.0 mm 0.00 in0.0 mm
01:25 AM 71.2°F21.8°C 56.1°F13.4°C 59% 2.6 mph S4.2 kmh S 7.3 mph11.7 kmh 30.14 in1020.7 mb 0.00 in0.0 mm 0.00 in0.0 mm 0.00 in0.0 mm
01:20 AM 70.9°F21.6°C 56.3°F13.5°C 60% 2.4 mph S3.9 kmh S 7.6 mph12.2 kmh 30.14 in1020.7 mb 0.00 in0.0 mm 0.00 in0.0 mm 0.00 in0.0 mm
01:14 AM 70.7°F21.5°C 56.1°F13.4°C 60% 2.9 mph S4.7 kmh S 7.6 mph12.2 kmh 30.14 in1020.7 mb 0.00 in0.0 mm 0.00 in0.0 mm 0.00 in0.0 mm
01:09 AM 70.3°F21.3°C 56.3°F13.5°C 61% Calm Calm -- 30.14 in1020.7 mb 0.00 in0.0 mm 0.00 in0.0 mm 0.00 in0.0 mm
01:03 AM 70.2°F21.2°C 56.1°F13.4°C 61% Calm Calm 2.4 mph3.9 kmh 30.14 in1020.7 mb 0.00 in0.0 mm 0.00 in0.0 mm 0.00 in0.0 mm
12:58 AM 70.0°F21.1°C 55.9°F13.3°C 61% Calm Calm 2.4 mph3.9 kmh 30.14 in1020.7 mb 0.00 in0.0 mm 0.00 in0.0 mm 0.00 in0.0 mm
12:53 AM 70.0°F21.1°C 55.9°F13.3°C 61% Calm Calm 0.8 mph1.3 kmh 30.14 in1020.7 mb 0.00 in0.0 mm 0.00 in0.0 mm 0.00 in0.0 mm
12:48 AM 69.4°F20.8°C 55.8°F13.2°C 62% Calm Calm 0.8 mph1.3 kmh 30.14 in1020.7 mb 0.00 in0.0 mm 0.00 in0.0 mm 0.00 in0.0 mm
12:42 AM 68.7°F20.4°C 55.6°F13.1°C 63% 0.8 mph S1.3 kmh S 0.8 mph1.3 kmh 30.14 in1020.7 mb 0.00 in0.0 mm 0.00 in0.0 mm 0.00 in0.0 mm
12:37 AM 68.4°F20.2°C 55.6°F13.1°C 64% Calm Calm -- 30.14 in1020.7 mb 0.00 in0.0 mm 0.00 in0.0 mm 0.00 in0.0 mm
12:32 AM 68.2°F20.1°C 55.0°F12.8°C 64% Calm Calm -- 30.14 in1020.7 mb 0.00 in0.0 mm 0.00 in0.0 mm 0.00 in0.0 mm
12:27 AM 68.5°F20.3°C 54.9°F12.7°C 62% Calm Calm -- 30.14 in1020.7 mb 0.00 in0.0 mm 0.00 in0.0 mm 0.00 in0.0 mm
12:21 AM 68.7°F20.4°C 55.0°F12.8°C 62% Calm Calm -- 30.14 in1020.7 mb 0.00 in0.0 mm 0.00 in0.0 mm 0.00 in0.0 mm
12:16 AM 69.1°F20.6°C 55.0°F12.8°C 61% Calm Calm -- 30.14 in1020.7 mb 0.00 in0.0 mm 0.00 in0.0 mm 0.00 in0.0 mm
12:11 AM 69.4°F20.8°C 55.0°F12.8°C 60% Calm Calm -- 30.14 in1020.7 mb 0.00 in0.0 mm 0.00 in0.0 mm 0.00 in0.0 mm
12:06 AM 69.4°F20.8°C 55.0°F12.8°C 60% Calm Calm -- 30.15 in1021.0 mb 0.00 in0.0 mm 0.00 in0.0 mm 0.00 in0.0 mm
12:00 AM 69.6°F20.9°C 55.6°F13.1°C 60% Calm Calm -- 30.15 in1021.0 mb 0.00 in0.0 mm 0.00 in0.0 mm 0.00 in0.0 mm